Sharon, Michigan
Current Conditions -  °F | °C
As of 10:53 AM on Thursday 29 Jan 2015 (Local Time) from KARB Reporting Station
Overcast Overcast  
Wind Chill:   Ceiling: 3400
Heat Index:   Visibility: 10mi
Dew Point: -3°   Wind: 0mph
Humidity: 79%   Direction: NA
Pressure: 29.74"   Gusts: NA
Location:  42.1633°N, 84.0265°W
Report Text: KARB 291553Z 00000KT 10SM OVC034 00/M03 A2974 RMK AO2 SLP080 T00001033
Loading
Personal Weather Stations






























Interactive Weather Map New forecast layout! Learn more

10-Day Weather Forecast

Advertisements
Track Severe Weather on mobile